Time;durP1;ratioP1;P1;durP2;ratioP2;P2;SDS_P1;SDS_P2;PMS_P1;PMS_P2;Temp;Humidity;BMP_temperature;BMP_pressure;BME280_temperature;BME280_humidity;BME280_pressure;Samples;Min_cycle;Max_cycle;Signal;HPM_P1;HPM_P2
2023/03/11 00:00:12;;;;;;;2.13;0.65;;;;;;;;;;4993695;28;20452;-74
2023/03/11 00:02:39;;;;;;;8.07;0.85;;;;;;;;;;5009935;28;20053;-74
2023/03/11 00:05:04;;;;;;;3.50;0.88;;;;;;;;;;4998189;28;20482;-73
2023/03/11 00:07:30;;;;;;;2.10;0.70;;;;;;;;;;4994621;28;20034;-76
2023/03/11 00:09:55;;;;;;;3.80;0.70;;;;;;;;;;5017466;28;20017;-73
2023/03/11 00:12:21;;;;;;;4.03;0.73;;;;;;;;;;5014470;28;20450;-73
2023/03/11 00:14:46;;;;;;;2.25;0.63;;;;;;;;;;5015836;28;20112;-73
2023/03/11 00:17:11;;;;;;;3.78;0.75;;;;;;;;;;4996099;28;20117;-73
2023/03/11 00:19:36;;;;;;;3.50;0.80;;;;;;;;;;5011732;28;20054;-73
2023/03/11 00:22:02;;;;;;;2.92;0.80;;;;;;;;;;4997815;28;20401;-73
2023/03/11 00:24:27;;;;;;;2.22;0.73;;;;;;;;;;5012637;28;20374;-73
2023/03/11 00:26:52;;;;;;;4.30;0.52;;;;;;;;;;4998082;28;20025;-73
2023/03/11 00:29:18;;;;;;;2.95;0.60;;;;;;;;;;5008294;28;20121;-73
2023/03/11 00:31:43;;;;;;;3.05;0.75;;;;;;;;;;4997795;28;20121;-73
2023/03/11 00:34:08;;;;;;;2.45;0.70;;;;;;;;;;5013269;28;20109;-74
2023/03/11 00:36:34;;;;;;;4.03;0.80;;;;;;;;;;5017289;28;20056;-74
2023/03/11 00:39:05;;;;;;;6.07;0.80;;;;;;;;;;4993657;28;20286;-73
2023/03/11 00:41:32;;;;;;;1.33;0.50;;;;;;;;;;5001139;28;20026;-73
2023/03/11 00:43:57;;;;;;;2.20;0.50;;;;;;;;;;4992033;28;20034;-73
2023/03/11 00:46:22;;;;;;;4.25;0.77;;;;;;;;;;5016085;28;20045;-73
2023/03/11 00:48:50;;;;;;;4.60;0.70;;;;;;;;;;5012508;28;20037;-74
2023/03/11 00:51:15;;;;;;;0.75;0.40;;;;;;;;;;4997019;28;20022;-75
2023/03/11 00:53:41;;;;;;;2.80;0.35;;;;;;;;;;5011821;28;20037;-73
2023/03/11 00:56:08;;;;;;;0.73;0.40;;;;;;;;;;5013149;28;20030;-74
2023/03/11 00:58:34;;;;;;;1.27;0.60;;;;;;;;;;4999468;28;20029;-74
2023/03/11 01:01:00;;;;;;;2.33;0.60;;;;;;;;;;5011449;28;20034;-74
2023/03/11 01:03:26;;;;;;;1.35;0.40;;;;;;;;;;4995191;28;20030;-76
2023/03/11 01:05:51;;;;;;;1.45;0.70;;;;;;;;;;5010973;28;20021;-73
2023/03/11 01:08:17;;;;;;;3.03;0.80;;;;;;;;;;5014911;28;20029;-73
2023/03/11 01:10:42;;;;;;;1.13;0.60;;;;;;;;;;4993825;28;20128;-74
2023/03/11 01:13:07;;;;;;;3.47;0.60;;;;;;;;;;5011649;28;20028;-73
2023/03/11 01:15:35;;;;;;;5.47;1.05;;;;;;;;;;5017233;28;20042;-74
2023/03/11 01:18:01;;;;;;;0.75;0.40;;;;;;;;;;5015452;28;20053;-74
2023/03/11 01:20:27;;;;;;;3.45;0.60;;;;;;;;;;5012381;28;20065;-73
2023/03/11 01:22:52;;;;;;;2.35;0.55;;;;;;;;;;5012984;28;20026;-73
2023/03/11 01:25:21;;;;;;;3.42;0.70;;;;;;;;;;5011365;28;20112;-73
2023/03/11 01:27:46;;;;;;;1.45;0.40;;;;;;;;;;5009285;28;20104;-75
2023/03/11 01:30:20;;;;;;;1.60;0.50;;;;;;;;;;5015073;28;20478;-73
2023/03/11 01:32:46;;;;;;;2.28;0.82;;;;;;;;;;5000223;28;20052;-73
2023/03/11 01:35:13;;;;;;;2.05;0.35;;;;;;;;;;4989794;28;20057;-75
2023/03/11 01:37:39;;;;;;;2.17;0.50;;;;;;;;;;5013666;28;20436;-74
2023/03/11 01:40:06;;;;;;;1.83;0.50;;;;;;;;;;5001821;28;20033;-73
2023/03/11 01:42:31;;;;;;;2.15;0.60;;;;;;;;;;4999715;28;20080;-74
2023/03/11 01:44:56;;;;;;;1.77;0.70;;;;;;;;;;5010232;28;20033;-74
2023/03/11 01:47:35;;;;;;;2.78;0.60;;;;;;;;;;4991612;28;20092;-74
2023/03/11 01:50:02;;;;;;;1.05;0.45;;;;;;;;;;4998727;28;20041;-73
2023/03/11 01:52:27;;;;;;;2.58;0.75;;;;;;;;;;5011641;28;20030;-73
2023/03/11 01:54:53;;;;;;;2.13;0.63;;;;;;;;;;5012929;28;20025;-73
2023/03/11 01:57:20;;;;;;;3.45;0.90;;;;;;;;;;4993159;28;20394;-73
2023/03/11 01:59:52;;;;;;;1.80;0.60;;;;;;;;;;5013211;28;20531;-73
2023/03/11 02:02:21;;;;;;;2.65;0.50;;;;;;;;;;5008109;28;20084;-73
2023/03/11 02:04:48;;;;;;;2.55;0.57;;;;;;;;;;5009258;28;20042;-74
2023/03/11 02:07:14;;;;;;;1.42;0.57;;;;;;;;;;5001813;28;20037;-73
2023/03/11 02:09:40;;;;;;;2.65;0.75;;;;;;;;;;5009379;28;20075;-74
2023/03/11 02:12:08;;;;;;;1.75;0.90;;;;;;;;;;5014940;28;20392;-73
2023/03/11 02:14:34;;;;;;;2.60;0.73;;;;;;;;;;5012525;28;20086;-73
2023/03/11 02:17:00;;;;;;;3.13;0.90;;;;;;;;;;5017160;28;20121;-77
2023/03/11 02:20:00;;;;;;;3.45;0.80;;;;;;;;;;5015059;28;20576;-73
2023/03/11 02:22:28;;;;;;;3.63;0.95;;;;;;;;;;5009236;28;20021;-73
2023/03/11 02:25:16;;;;;;;2.05;0.68;;;;;;;;;;5006506;28;20091;-73
2023/03/11 02:27:46;;;;;;;1.77;0.50;;;;;;;;;;5012869;28;20032;-73
2023/03/11 02:30:12;;;;;;;3.50;0.80;;;;;;;;;;4992821;28;20026;-74
2023/03/11 02:32:38;;;;;;;2.35;0.90;;;;;;;;;;5012525;28;20040;-73
2023/03/11 02:35:05;;;;;;;1.55;0.73;;;;;;;;;;5002450;28;20405;-73
2023/03/11 02:37:30;;;;;;;1.65;0.70;;;;;;;;;;5010165;28;20025;-73
2023/03/11 02:40:21;;;;;;;2.65;0.60;;;;;;;;;;5014883;28;20045;-75
2023/03/11 02:42:53;;;;;;;2.92;1.00;;;;;;;;;;4991553;28;20049;-73
2023/03/11 02:45:22;;;;;;;2.30;0.77;;;;;;;;;;5011530;28;20037;-73
2023/03/11 02:47:49;;;;;;;2.03;0.75;;;;;;;;;;5011726;28;20030;-73
2023/03/11 02:50:15;;;;;;;2.97;0.88;;;;;;;;;;4991760;28;20088;-74
2023/03/11 02:52:41;;;;;;;3.08;0.82;;;;;;;;;;5013660;28;20026;-73
2023/03/11 02:55:08;;;;;;;2.10;0.80;;;;;;;;;;4993807;28;20029;-73
2023/03/11 02:57:35;;;;;;;3.03;1.00;;;;;;;;;;5012543;28;20034;-73
2023/03/11 03:00:07;;;;;;;2.70;0.70;;;;;;;;;;5009880;28;20402;-75
2023/03/11 03:02:32;;;;;;;2.93;1.00;;;;;;;;;;4995217;28;20034;-73
2023/03/11 03:04:57;;;;;;;2.20;0.77;;;;;;;;;;4994569;28;20112;-74
2023/03/11 03:07:23;;;;;;;1.88;0.80;;;;;;;;;;4995139;28;20389;-73
2023/03/11 03:09:48;;;;;;;3.40;1.30;;;;;;;;;;5008769;28;20596;-73
2023/03/11 03:12:13;;;;;;;1.90;0.70;;;;;;;;;;5015392;28;20036;-73
2023/03/11 03:14:38;;;;;;;1.73;0.80;;;;;;;;;;5014538;28;20462;-74
2023/03/11 03:17:04;;;;;;;1.83;0.60;;;;;;;;;;5007906;28;20034;-73
2023/03/11 03:19:29;;;;;;;1.45;0.75;;;;;;;;;;4992062;28;20042;-73
2023/03/11 03:21:54;;;;;;;2.25;0.80;;;;;;;;;;5010281;28;20034;-74
2023/03/11 03:24:20;;;;;;;1.75;0.70;;;;;;;;;;5019575;28;20026;-73
2023/03/11 03:26:45;;;;;;;2.75;0.77;;;;;;;;;;4997423;28;20397;-73
2023/03/11 03:29:10;;;;;;;2.10;0.70;;;;;;;;;;4991815;28;20064;-76
2023/03/11 03:31:37;;;;;;;3.58;1.05;;;;;;;;;;5007603;28;20475;-73
2023/03/11 03:34:02;;;;;;;1.73;0.70;;;;;;;;;;5006152;28;20501;-73
2023/03/11 03:36:27;;;;;;;1.73;0.80;;;;;;;;;;5008407;28;20033;-73
2023/03/11 03:38:54;;;;;;;3.40;0.75;;;;;;;;;;5015284;28;20068;-73
2023/03/11 03:41:20;;;;;;;1.30;0.70;;;;;;;;;;4995331;28;20120;-73
2023/03/11 03:43:46;;;;;;;2.45;0.80;;;;;;;;;;5012108;28;20129;-73
2023/03/11 03:46:11;;;;;;;2.53;1.00;;;;;;;;;;5013255;28;20030;-74
2023/03/11 03:48:37;;;;;;;1.58;0.77;;;;;;;;;;4997167;28;20033;-73
2023/03/11 03:51:08;;;;;;;2.03;0.70;;;;;;;;;;5016319;28;20060;-73
2023/03/11 03:53:34;;;;;;;3.55;0.77;;;;;;;;;;4993565;28;20128;-73
2023/03/11 03:56:08;;;;;;;2.05;0.90;;;;;;;;;;5014979;28;20034;-73
2023/03/11 03:58:33;;;;;;;3.38;0.73;;;;;;;;;;5009545;28;20025;-74
2023/03/11 04:00:59;;;;;;;1.83;0.70;;;;;;;;;;5012436;28;20383;-73
2023/03/11 04:03:26;;;;;;;1.80;0.77;;;;;;;;;;5016996;28;20029;-73
2023/03/11 04:05:51;;;;;;;1.85;0.73;;;;;;;;;;5015897;28;20037;-74
2023/03/11 04:08:17;;;;;;;3.38;1.00;;;;;;;;;;5018005;28;20041;-73
2023/03/11 04:10:42;;;;;;;1.33;0.70;;;;;;;;;;5001437;28;20029;-73
2023/03/11 04:13:08;;;;;;;1.92;0.70;;;;;;;;;;5012299;28;20037;-74
2023/03/11 04:15:33;;;;;;;3.17;0.82;;;;;;;;;;5012185;28;20030;-73
2023/03/11 04:17:58;;;;;;;2.78;0.75;;;;;;;;;;5009104;28;20033;-73
2023/03/11 04:20:24;;;;;;;1.60;0.65;;;;;;;;;;5008887;28;20149;-75
2023/03/11 04:22:49;;;;;;;1.98;0.70;;;;;;;;;;5011219;28;20033;-73
2023/03/11 04:25:15;;;;;;;2.45;0.80;;;;;;;;;;4992966;28;20028;-75
2023/03/11 04:27:44;;;;;;;2.13;0.77;;;;;;;;;;4993600;28;20037;-74
2023/03/11 04:30:11;;;;;;;2.83;0.73;;;;;;;;;;5010099;28;20117;-73
2023/03/11 04:32:36;;;;;;;2.30;0.88;;;;;;;;;;5009332;28;20026;-73
2023/03/11 04:35:02;;;;;;;1.55;0.63;;;;;;;;;;5009899;28;20032;-73
2023/03/11 04:37:28;;;;;;;2.60;0.70;;;;;;;;;;5011072;28;20057;-73
2023/03/11 04:39:54;;;;;;;2.42;0.73;;;;;;;;;;5000268;28;20022;-73
2023/03/11 04:42:19;;;;;;;3.72;1.10;;;;;;;;;;4998594;28;20401;-73
2023/03/11 04:44:44;;;;;;;1.90;0.90;;;;;;;;;;5011960;28;20029;-73
2023/03/11 04:47:10;;;;;;;2.88;0.90;;;;;;;;;;5014853;28;20026;-73
2023/03/11 04:49:35;;;;;;;2.53;0.80;;;;;;;;;;5015698;28;20029;-73
2023/03/11 04:52:01;;;;;;;1.75;0.60;;;;;;;;;;5017290;28;20032;-73
2023/03/11 04:54:26;;;;;;;2.40;0.85;;;;;;;;;;5000866;28;20029;-73
2023/03/11 04:56:51;;;;;;;2.67;0.77;;;;;;;;;;4994889;28;20065;-74
2023/03/11 04:59:17;;;;;;;2.90;1.10;;;;;;;;;;4994334;28;20026;-73
2023/03/11 05:01:42;;;;;;;2.88;0.90;;;;;;;;;;4995971;28;20025;-74
2023/03/11 05:04:07;;;;;;;2.20;0.95;;;;;;;;;;4992857;28;20486;-73
2023/03/11 05:06:33;;;;;;;1.67;0.70;;;;;;;;;;5008714;28;20032;-73
2023/03/11 05:08:58;;;;;;;2.65;0.80;;;;;;;;;;4995232;28;20401;-73
2023/03/11 05:11:24;;;;;;;1.55;0.70;;;;;;;;;;4994507;28;20049;-73
2023/03/11 05:13:49;;;;;;;3.28;0.65;;;;;;;;;;5018540;28;20036;-73
2023/03/11 05:16:15;;;;;;;4.50;0.90;;;;;;;;;;4999504;28;20037;-73
2023/03/11 05:18:40;;;;;;;2.25;0.95;;;;;;;;;;5000798;28;20514;-73
2023/03/11 05:21:05;;;;;;;1.92;0.88;;;;;;;;;;4991832;28;20081;-73
2023/03/11 05:23:31;;;;;;;2.08;1.00;;;;;;;;;;5009266;28;20437;-73
2023/03/11 05:25:56;;;;;;;2.30;0.88;;;;;;;;;;5010531;28;20036;-73
2023/03/11 05:28:21;;;;;;;3.22;0.90;;;;;;;;;;4990277;28;20022;-75
2023/03/11 05:30:47;;;;;;;3.08;0.82;;;;;;;;;;5013549;28;20060;-73
2023/03/11 05:33:12;;;;;;;2.35;1.10;;;;;;;;;;4994609;28;21145;-73
2023/03/11 05:35:37;;;;;;;2.47;0.90;;;;;;;;;;5002837;28;20025;-73
2023/03/11 05:38:03;;;;;;;4.03;1.05;;;;;;;;;;5009507;28;20040;-73
2023/03/11 05:40:28;;;;;;;2.63;0.80;;;;;;;;;;5010428;28;20029;-74
2023/03/11 05:42:53;;;;;;;3.33;0.88;;;;;;;;;;5012899;28;20112;-75
2023/03/11 05:45:19;;;;;;;2.67;0.82;;;;;;;;;;5014877;28;20114;-73
2023/03/11 05:47:44;;;;;;;1.30;0.90;;;;;;;;;;5008225;28;20026;-73
2023/03/11 05:50:11;;;;;;;2.17;0.98;;;;;;;;;;5022406;28;20036;-73
2023/03/11 05:52:36;;;;;;;2.70;1.08;;;;;;;;;;4993940;28;20522;-73
2023/03/11 05:55:02;;;;;;;2.22;1.00;;;;;;;;;;4996682;28;20045;-74
2023/03/11 05:57:27;;;;;;;2.35;1.00;;;;;;;;;;5010895;28;20620;-73
2023/03/11 05:59:53;;;;;;;4.60;1.00;;;;;;;;;;4995364;28;20029;-77
2023/03/11 06:02:19;;;;;;;4.10;1.00;;;;;;;;;;5004312;28;20552;-74
2023/03/11 06:04:45;;;;;;;3.15;1.05;;;;;;;;;;4992587;28;20026;-74
2023/03/11 06:07:11;;;;;;;2.42;1.13;;;;;;;;;;5003087;28;20030;-74
2023/03/11 06:09:37;;;;;;;3.75;1.13;;;;;;;;;;4992652;28;20025;-73
2023/03/11 06:12:04;;;;;;;2.85;1.17;;;;;;;;;;4993286;28;20374;-74
2023/03/11 06:14:31;;;;;;;2.97;1.20;;;;;;;;;;5007178;28;20119;-73
2023/03/11 06:16:57;;;;;;;3.15;0.93;;;;;;;;;;4990795;28;20109;-74
2023/03/11 06:19:24;;;;;;;3.15;0.88;;;;;;;;;;4991365;28;20120;-73
2023/03/11 06:21:49;;;;;;;2.28;1.27;;;;;;;;;;5010398;28;20025;-74
2023/03/11 06:24:14;;;;;;;2.55;0.90;;;;;;;;;;4992495;28;20038;-75
2023/03/11 06:26:40;;;;;;;2.10;1.00;;;;;;;;;;5007308;28;20030;-74
2023/03/11 06:29:11;;;;;;;1.98;0.88;;;;;;;;;;4993631;28;20038;-74
2023/03/11 06:31:38;;;;;;;3.03;0.98;;;;;;;;;;4992717;28;20397;-73
2023/03/11 06:34:04;;;;;;;2.33;1.02;;;;;;;;;;5004606;28;20108;-74
2023/03/11 06:36:29;;;;;;;1.45;0.80;;;;;;;;;;4990107;28;20026;-75
2023/03/11 06:38:55;;;;;;;2.67;1.00;;;;;;;;;;4978574;28;20026;-73
2023/03/11 06:41:20;;;;;;;3.33;1.27;;;;;;;;;;4989296;28;20041;-74
2023/03/11 06:43:45;;;;;;;1.33;0.77;;;;;;;;;;4987475;28;20036;-73
2023/03/11 06:46:14;;;;;;;3.92;1.10;;;;;;;;;;4991596;28;20027;-75
2023/03/11 06:48:40;;;;;;;3.65;1.10;;;;;;;;;;5005908;28;20037;-73
2023/03/11 06:51:05;;;;;;;2.33;1.10;;;;;;;;;;5009976;28;20394;-74
2023/03/11 06:53:31;;;;;;;2.40;1.10;;;;;;;;;;5009096;28;20040;-74
2023/03/11 06:56:08;;;;;;;4.05;1.30;;;;;;;;;;5007175;28;20026;-74
2023/03/11 06:58:35;;;;;;;3.15;1.08;;;;;;;;;;4985780;28;20036;-73
2023/03/11 07:01:07;;;;;;;4.20;1.13;;;;;;;;;;4993808;28;20034;-76
2023/03/11 07:03:32;;;;;;;3.33;1.17;;;;;;;;;;5003053;28;20025;-73
2023/03/11 07:05:58;;;;;;;3.10;1.08;;;;;;;;;;5009318;28;20022;-73
2023/03/11 07:08:24;;;;;;;2.70;1.20;;;;;;;;;;4984030;28;20018;-74
2023/03/11 07:11:06;;;;;;;2.53;1.50;;;;;;;;;;5001666;28;20041;-74
2023/03/11 07:13:32;;;;;;;2.53;1.20;;;;;;;;;;5004078;28;20439;-74
2023/03/11 07:16:06;;;;;;;2.63;1.02;;;;;;;;;;5005924;28;20121;-73
2023/03/11 07:18:32;;;;;;;1.85;1.00;;;;;;;;;;5007290;28;20033;-74
2023/03/11 07:20:58;;;;;;;2.40;1.02;;;;;;;;;;4985859;28;20116;-74
2023/03/11 07:23:23;;;;;;;3.47;1.50;;;;;;;;;;5000782;28;20175;-74
2023/03/11 07:25:50;;;;;;;4.13;1.30;;;;;;;;;;4994855;28;20088;-74
2023/03/11 07:28:15;;;;;;;3.75;1.25;;;;;;;;;;5000443;28;22403;-74
2023/03/11 07:30:43;;;;;;;4.57;1.40;;;;;;;;;;4987982;28;20022;-74
2023/03/11 07:33:08;;;;;;;3.40;1.17;;;;;;;;;;5007147;28;20034;-74
2023/03/11 07:35:34;;;;;;;3.78;1.45;;;;;;;;;;5010244;28;20029;-74
2023/03/11 07:38:00;;;;;;;3.70;1.27;;;;;;;;;;5008109;28;20022;-73
2023/03/11 07:40:25;;;;;;;1.92;0.98;;;;;;;;;;4984158;28;20386;-74
2023/03/11 07:42:50;;;;;;;3.33;1.70;;;;;;;;;;5007100;28;20117;-75
2023/03/11 07:45:16;;;;;;;3.85;1.35;;;;;;;;;;5012068;28;20076;-73
2023/03/11 07:47:41;;;;;;;2.80;1.25;;;;;;;;;;5004742;28;20026;-76
2023/03/11 07:50:06;;;;;;;3.17;1.17;;;;;;;;;;5009945;28;20026;-74
2023/03/11 07:52:32;;;;;;;2.80;1.30;;;;;;;;;;4991306;28;20030;-74
2023/03/11 07:54:58;;;;;;;2.42;1.25;;;;;;;;;;5007094;28;20045;-74
2023/03/11 07:57:23;;;;;;;3.88;1.27;;;;;;;;;;5007144;28;20026;-73
2023/03/11 07:59:49;;;;;;;3.42;1.27;;;;;;;;;;5001445;28;20025;-76
2023/03/11 08:02:14;;;;;;;3.20;1.13;;;;;;;;;;4996944;28;20471;-75
2023/03/11 08:04:40;;;;;;;3.05;1.40;;;;;;;;;;4977730;28;20026;-73
2023/03/11 08:07:05;;;;;;;1.90;1.13;;;;;;;;;;5008667;28;20037;-74
2023/03/11 08:09:30;;;;;;;4.38;1.27;;;;;;;;;;4989933;28;20034;-73
2023/03/11 08:11:56;;;;;;;1.90;1.10;;;;;;;;;;4973380;28;20484;-73
2023/03/11 08:14:21;;;;;;;3.80;1.23;;;;;;;;;;5006678;28;20046;-75
2023/03/11 08:16:46;;;;;;;3.13;1.50;;;;;;;;;;4998130;28;20037;-74
2023/03/11 08:19:12;;;;;;;3.30;1.50;;;;;;;;;;5009981;28;20038;-74
2023/03/11 08:21:38;;;;;;;2.67;1.08;;;;;;;;;;5003656;28;20029;-74
2023/03/11 08:24:03;;;;;;;1.92;0.90;;;;;;;;;;5005765;28;20040;-76
2023/03/11 08:26:29;;;;;;;2.33;1.10;;;;;;;;;;5003022;28;20033;-73
2023/03/11 08:28:57;;;;;;;2.42;1.20;;;;;;;;;;4998522;28;20098;-74
2023/03/11 08:31:25;;;;;;;2.55;1.15;;;;;;;;;;5008098;28;20029;-73
2023/03/11 08:33:52;;;;;;;3.38;1.15;;;;;;;;;;4993340;28;20061;-73
2023/03/11 08:36:18;;;;;;;2.88;1.23;;;;;;;;;;5015387;28;20037;-74
2023/03/11 08:38:44;;;;;;;2.33;1.13;;;;;;;;;;4990957;28;20382;-72
2023/03/11 08:41:09;;;;;;;4.20;1.17;;;;;;;;;;4992224;28;20041;-74
2023/03/11 08:43:35;;;;;;;3.72;1.05;;;;;;;;;;5007236;28;20026;-72
2023/03/11 08:46:03;;;;;;;2.08;1.00;;;;;;;;;;4995246;28;20022;-72
2023/03/11 08:48:28;;;;;;;3.22;1.00;;;;;;;;;;5005517;28;20501;-72
2023/03/11 08:50:55;;;;;;;5.45;1.10;;;;;;;;;;5009025;28;20104;-75
2023/03/11 08:53:23;;;;;;;5.82;1.38;;;;;;;;;;5006551;28;20492;-72
2023/03/11 08:55:50;;;;;;;2.08;0.82;;;;;;;;;;5016142;28;20107;-72
2023/03/11 08:58:15;;;;;;;4.63;1.13;;;;;;;;;;5006791;28;20025;-72
2023/03/11 09:00:41;;;;;;;2.15;0.90;;;;;;;;;;5005367;28;20041;-74
2023/03/11 09:03:06;;;;;;;3.35;1.02;;;;;;;;;;5006725;28;20030;-73
2023/03/11 09:05:31;;;;;;;2.53;0.80;;;;;;;;;;4996130;28;20029;-72
2023/03/11 09:07:56;;;;;;;2.10;0.93;;;;;;;;;;4998462;28;20025;-72
2023/03/11 09:10:22;;;;;;;4.80;0.98;;;;;;;;;;5012946;28;20362;-72
2023/03/11 09:12:47;;;;;;;2.60;1.00;;;;;;;;;;5011052;28;20026;-73
2023/03/11 09:15:13;;;;;;;2.97;0.80;;;;;;;;;;4990354;28;20033;-73
2023/03/11 09:17:38;;;;;;;3.08;0.85;;;;;;;;;;4991349;28;20113;-73
2023/03/11 09:20:04;;;;;;;2.47;0.93;;;;;;;;;;5010350;28;20036;-72
2023/03/11 09:22:29;;;;;;;1.60;0.60;;;;;;;;;;5003180;28;20049;-73
2023/03/11 09:24:56;;;;;;;1.55;0.70;;;;;;;;;;5013202;28;20072;-72
2023/03/11 09:27:21;;;;;;;3.38;0.80;;;;;;;;;;5013958;28;20022;-73
2023/03/11 09:29:46;;;;;;;0.43;0.40;;;;;;;;;;5013017;28;20032;-72
2023/03/11 09:32:13;;;;;;;1.02;0.50;;;;;;;;;;5020658;28;20033;-72
2023/03/11 09:34:38;;;;;;;1.98;0.55;;;;;;;;;;5005910;28;20462;-73
2023/03/11 09:37:04;;;;;;;1.40;0.60;;;;;;;;;;5007821;28;20120;-72
2023/03/11 09:39:29;;;;;;;1.73;0.50;;;;;;;;;;4993508;28;20405;-72
2023/03/11 09:42:10;;;;;;;3.35;0.65;;;;;;;;;;4995335;28;20045;-72
2023/03/11 09:44:49;;;;;;;2.67;0.47;;;;;;;;;;5007373;28;20025;-73
2023/03/11 09:47:36;;;;;;;0.70;0.40;;;;;;;;;;5016662;28;20104;-72
2023/03/11 09:50:31;;;;;;;2.28;0.43;;;;;;;;;;5021306;28;20032;-73
2023/03/11 09:53:12;;;;;;;1.13;0.43;;;;;;;;;;5009958;28;20022;-73
2023/03/11 09:55:45;;;;;;;0.77;0.40;;;;;;;;;;5011484;28;20025;-72
2023/03/11 09:58:20;;;;;;;2.33;0.47;;;;;;;;;;5017789;28;20392;-73
2023/03/11 10:00:46;;;;;;;3.20;0.60;;;;;;;;;;5004031;28;20386;-75
2023/03/11 10:03:33;;;;;;;1.15;0.50;;;;;;;;;;4993583;28;20026;-73
2023/03/11 10:06:06;;;;;;;3.63;0.50;;;;;;;;;;5007955;28;20036;-74
2023/03/11 10:08:58;;;;;;;0.70;0.30;;;;;;;;;;4997489;28;20032;-73
2023/03/11 10:11:24;;;;;;;0.77;0.40;;;;;;;;;;5000137;28;20552;-73
2023/03/11 10:14:14;;;;;;;2.90;0.70;;;;;;;;;;5014363;28;20053;-72
2023/03/11 10:17:14;;;;;;;2.22;0.60;;;;;;;;;;5011242;28;20143;-74
2023/03/11 10:19:59;;;;;;;2.90;0.50;;;;;;;;;;5018316;28;20030;-73
2023/03/11 10:22:34;;;;;;;2.42;0.50;;;;;;;;;;5001884;28;20063;-73
2023/03/11 10:25:14;;;;;;;2.13;0.47;;;;;;;;;;5009512;28;20022;-74
2023/03/11 10:27:48;;;;;;;3.15;0.57;;;;;;;;;;5004189;28;20085;-75
2023/03/11 10:30:23;;;;;;;2.88;0.63;;;;;;;;;;5008883;28;20026;-73
2023/03/11 10:32:51;;;;;;;3.72;0.73;;;;;;;;;;5010568;28;20060;-73
2023/03/11 10:35:20;;;;;;;1.25;0.60;;;;;;;;;;4993888;28;20033;-73
2023/03/11 10:38:09;;;;;;;1.58;0.70;;;;;;;;;;4987882;28;20080;-73
2023/03/11 10:40:37;;;;;;;0.77;0.43;;;;;;;;;;5000890;28;20156;-73
2023/03/11 10:43:08;;;;;;;2.80;0.57;;;;;;;;;;5007252;28;20553;-73
2023/03/11 10:45:40;;;;;;;3.63;0.70;;;;;;;;;;5012880;28;20052;-74
2023/03/11 10:48:14;;;;;;;1.25;0.57;;;;;;;;;;5010903;28;20430;-73
2023/03/11 10:51:01;;;;;;;1.00;0.50;;;;;;;;;;5009569;28;20079;-73
2023/03/11 10:53:27;;;;;;;1.33;0.60;;;;;;;;;;4993723;28;20037;-73
2023/03/11 10:55:54;;;;;;;2.22;0.60;;;;;;;;;;5007639;28;20022;-73
2023/03/11 10:58:28;;;;;;;3.75;0.98;;;;;;;;;;5013603;28;20037;-73
2023/03/11 11:01:14;;;;;;;2.00;0.60;;;;;;;;;;4992343;28;20029;-73
2023/03/11 11:03:45;;;;;;;3.83;0.80;;;;;;;;;;5014277;28;20038;-73
2023/03/11 11:06:32;;;;;;;1.80;0.70;;;;;;;;;;5007047;28;20058;-75
2023/03/11 11:09:14;;;;;;;1.45;0.60;;;;;;;;;;4998985;28;20057;-75
2023/03/11 11:11:40;;;;;;;1.07;0.57;;;;;;;;;;4990751;28;20032;-75
2023/03/11 11:14:06;;;;;;;3.15;0.75;;;;;;;;;;4998973;28;20113;-74
2023/03/11 11:16:33;;;;;;;1.55;0.65;;;;;;;;;;5008586;28;20028;-75
2023/03/11 11:19:06;;;;;;;5.70;0.95;;;;;;;;;;5010391;28;20513;-76
2023/03/11 11:21:42;;;;;;;;;;;;;;;;;;4982129;28;20026;-75
2023/03/11 11:24:22;;;;;;;2.72;0.60;;;;;;;;;;5009177;28;19912;-75
2023/03/11 11:27:18;;;;;;;2.05;0.80;;;;;;;;;;4991836;28;20014;-75
2023/03/11 11:29:44;;;;;;;1.02;0.50;;;;;;;;;;5012244;28;20025;-75
2023/03/11 11:32:12;;;;;;;1.58;0.52;;;;;;;;;;5009477;28;20036;-75
2023/03/11 11:34:38;;;;;;;1.67;0.70;;;;;;;;;;5011348;28;20069;-75
2023/03/11 11:37:04;;;;;;;1.60;0.55;;;;;;;;;;5001159;28;20446;-75
2023/03/11 11:39:40;;;;;;;1.75;0.68;;;;;;;;;;4994451;28;20393;-75
2023/03/11 11:42:12;;;;;;;4.95;0.80;;;;;;;;;;4994252;28;20034;-75
2023/03/11 11:44:39;;;;;;;4.50;0.85;;;;;;;;;;5001539;28;20119;-75
2023/03/11 11:47:31;;;;;;;1.25;0.40;;;;;;;;;;5002800;28;20389;-75
2023/03/11 11:50:00;;;;;;;1.38;0.80;;;;;;;;;;5007999;28;20042;-75
2023/03/11 11:52:39;;;;;;;1.90;0.65;;;;;;;;;;5001236;28;20052;-75
2023/03/11 11:55:17;;;;;;;3.20;1.00;;;;;;;;;;5014253;28;20030;-75
2023/03/11 11:57:42;;;;;;;2.20;0.80;;;;;;;;;;5007566;28;20030;-75
2023/03/11 12:00:23;;;;;;;2.60;0.70;;;;;;;;;;5009025;28;20822;-76
2023/03/11 12:02:54;;;;;;;0.95;0.50;;;;;;;;;;5003987;28;20117;-75
2023/03/11 12:05:31;;;;;;;2.50;0.80;;;;;;;;;;5007041;28;20478;-75
2023/03/11 12:08:24;;;;;;;1.73;0.50;;;;;;;;;;5006373;28;20711;-75
2023/03/11 12:11:00;;;;;;;1.20;0.68;;;;;;;;;;5016737;28;20079;-75
2023/03/11 12:13:41;;;;;;;1.15;0.55;;;;;;;;;;5010663;28;20052;-76
2023/03/11 12:16:18;;;;;;;1.27;0.75;;;;;;;;;;4989666;28;20029;-75
2023/03/11 12:18:56;;;;;;;3.60;0.82;;;;;;;;;;4988502;28;20029;-75
2023/03/11 12:21:22;;;;;;;3.00;1.00;;;;;;;;;;5004774;28;20191;-75
2023/03/11 12:24:36;;;;;;;1.25;0.50;;;;;;;;;;4986014;28;20485;-76
2023/03/11 12:27:08;;;;;;;1.20;0.60;;;;;;;;;;4971284;28;20033;-75
2023/03/11 12:29:41;;;;;;;1.13;0.60;;;;;;;;;;4993815;28;20452;-76
2023/03/11 12:32:07;;;;;;;1.25;0.52;;;;;;;;;;4988431;28;20034;-75
2023/03/11 12:34:34;;;;;;;2.60;0.73;;;;;;;;;;5004745;28;20068;-76
2023/03/11 12:37:04;;;;;;;1.08;0.50;;;;;;;;;;4994298;28;20041;-75
2023/03/11 12:39:32;;;;;;;1.40;0.50;;;;;;;;;;4983332;28;20037;-75
2023/03/11 12:42:10;;;;;;;1.52;0.60;;;;;;;;;;5003620;28;20117;-76
2023/03/11 12:44:36;;;;;;;0.95;0.50;;;;;;;;;;5008610;28;20036;-75
2023/03/11 12:47:21;;;;;;;2.70;0.82;;;;;;;;;;4987609;28;20113;-76
2023/03/11 12:49:50;;;;;;;1.92;0.60;;;;;;;;;;4986937;28;20097;-75
2023/03/11 12:52:18;;;;;;;2.75;0.50;;;;;;;;;;5007354;28;20082;-76
2023/03/11 12:55:09;;;;;;;1.45;0.60;;;;;;;;;;5008885;28;20028;-75
2023/03/11 12:57:42;;;;;;;1.73;0.70;;;;;;;;;;4989734;28;20034;-76
2023/03/11 13:00:37;;;;;;;;;;;;;;;;;;5007312;28;20031;-75
2023/03/11 13:03:24;;;;;;;2.33;0.70;;;;;;;;;;5001871;28;19917;-77
2023/03/11 13:06:19;;;;;;;2.63;0.68;;;;;;;;;;4997487;28;20037;-76
2023/03/11 13:08:54;;;;;;;1.00;0.57;;;;;;;;;;4999142;28;20666;-75
2023/03/11 13:11:32;;;;;;;3.83;0.70;;;;;;;;;;5004182;28;20139;-75
2023/03/11 13:14:16;;;;;;;3.97;0.73;;;;;;;;;;5002365;28;20026;-77
2023/03/11 13:16:44;;;;;;;2.92;0.60;;;;;;;;;;5005143;28;20486;-77
2023/03/11 13:19:31;;;;;;;1.42;0.63;;;;;;;;;;4986540;28;20494;-77
2023/03/11 13:21:58;;;;;;;2.30;0.85;;;;;;;;;;5001059;28;20022;-76
2023/03/11 13:24:28;;;;;;;1.50;0.60;;;;;;;;;;4995118;28;20033;-77
2023/03/11 13:27:06;;;;;;;2.38;0.70;;;;;;;;;;4982326;28;20505;-77
2023/03/11 13:29:51;;;;;;;1.92;0.80;;;;;;;;;;4982977;28;20263;-76
2023/03/11 13:32:47;;;;;;;2.58;0.73;;;;;;;;;;4997205;28;20077;-77
2023/03/11 13:35:44;;;;;;;1.90;0.60;;;;;;;;;;4977813;28;20052;-77
2023/03/11 13:38:24;;;;;;;5.60;0.80;;;;;;;;;;4979995;28;20071;-76
2023/03/11 13:40:51;;;;;;;0.88;0.43;;;;;;;;;;4990788;28;20970;-77
2023/03/11 13:43:16;;;;;;;3.00;0.52;;;;;;;;;;4993796;28;20156;-77
2023/03/11 13:45:49;;;;;;;1.55;0.52;;;;;;;;;;4992025;28;20609;-77
2023/03/11 13:48:36;;;;;;;3.40;0.73;;;;;;;;;;5001507;28;20034;-77
2023/03/11 13:51:23;;;;;;;3.85;0.70;;;;;;;;;;4994046;28;20041;-74
2023/03/11 13:53:56;;;;;;;3.42;0.70;;;;;;;;;;4971484;28;20029;-76
2023/03/11 13:56:27;;;;;;;4.35;0.57;;;;;;;;;;4996208;28;20073;-74
2023/03/11 13:58:53;;;;;;;0.82;0.50;;;;;;;;;;4998662;28;20037;-75
2023/03/11 14:01:19;;;;;;;0.65;0.43;;;;;;;;;;4982155;28;20041;-76
2023/03/11 14:03:46;;;;;;;2.42;0.70;;;;;;;;;;4990251;28;20037;-75
2023/03/11 14:06:18;;;;;;;1.45;0.65;;;;;;;;;;4995742;28;20026;-74
2023/03/11 14:08:56;;;;;;;1.63;0.80;;;;;;;;;;4993518;28;20088;-74
2023/03/11 14:11:28;;;;;;;1.00;0.60;;;;;;;;;;4991798;28;20079;-76
2023/03/11 14:13:54;;;;;;;1.90;0.70;;;;;;;;;;4963384;28;20363;-74
2023/03/11 14:16:34;;;;;;;1.85;0.60;;;;;;;;;;4981607;28;20041;-74
2023/03/11 14:19:07;;;;;;;1.52;0.60;;;;;;;;;;4991865;28;20037;-76
2023/03/11 14:21:33;;;;;;;3.88;0.65;;;;;;;;;;4999272;28;20042;-74
2023/03/11 14:23:59;;;;;;;2.15;0.47;;;;;;;;;;4982154;28;20091;-76
2023/03/11 14:26:34;;;;;;;2.53;0.50;;;;;;;;;;4984046;28;20065;-76
2023/03/11 14:29:16;;;;;;;0.68;0.38;;;;;;;;;;4997426;28;20108;-76
2023/03/11 14:31:43;;;;;;;1.98;0.70;;;;;;;;;;4993640;28;20026;-74
2023/03/11 14:34:40;;;;;;;3.08;0.70;;;;;;;;;;4990998;28;20040;-75
2023/03/11 14:37:29;;;;;;;3.67;0.50;;;;;;;;;;4962213;28;20426;-74
2023/03/11 14:39:55;;;;;;;1.85;0.60;;;;;;;;;;4991170;28;20026;-74
2023/03/11 14:42:37;;;;;;;1.80;0.68;;;;;;;;;;4975493;28;20036;-74
2023/03/11 14:45:16;;;;;;;1.55;0.52;;;;;;;;;;4986291;28;20179;-76
2023/03/11 14:47:48;;;;;;;1.30;0.55;;;;;;;;;;4995157;28;20037;-74
2023/03/11 14:50:19;;;;;;;2.45;0.50;;;;;;;;;;4995655;28;20025;-74
2023/03/11 14:53:00;;;;;;;1.38;0.55;;;;;;;;;;5004297;28;20108;-76
2023/03/11 14:55:33;;;;;;;0.73;0.50;;;;;;;;;;4998512;28;20113;-75
2023/03/11 14:58:02;;;;;;;1.15;0.50;;;;;;;;;;4973080;28;20034;-75